createdAt,value
2019-02-19T00:02:15.878Z,9.10
2019-02-19T00:04:42.562Z,10.33
2019-02-19T00:07:09.370Z,8.83
2019-02-19T00:09:36.457Z,12.50
2019-02-19T00:12:03.127Z,11.30
2019-02-19T00:14:29.608Z,8.57
2019-02-19T00:16:56.295Z,9.13
2019-02-19T00:19:23.099Z,8.10
2019-02-19T00:21:49.639Z,8.20
2019-02-19T00:24:16.395Z,8.00
2019-02-19T00:26:44.175Z,7.13
2019-02-19T00:29:10.637Z,11.43
2019-02-19T00:31:37.419Z,7.77
2019-02-19T00:34:03.848Z,11.00
2019-02-19T00:36:31.650Z,13.87
2019-02-19T00:38:58.158Z,7.97
2019-02-19T00:41:24.604Z,8.57
2019-02-19T00:43:51.148Z,10.67
2019-02-19T00:46:17.581Z,10.27
2019-02-19T00:48:44.156Z,11.57
2019-02-19T00:51:10.825Z,11.50
2019-02-19T00:53:37.535Z,11.73
2019-02-19T00:56:04.056Z,10.27
2019-02-19T00:58:30.699Z,11.37
2019-02-19T01:00:57.115Z,11.63
2019-02-19T01:03:23.633Z,11.13
2019-02-19T01:05:50.331Z,9.33
2019-02-19T01:08:17.227Z,9.03
2019-02-19T01:10:43.946Z,10.77
2019-02-19T01:13:10.473Z,10.63
2019-02-19T01:15:37.258Z,6.63
2019-02-19T01:18:03.693Z,9.03
2019-02-19T01:20:30.358Z,10.93
2019-02-19T01:22:56.788Z,10.90
2019-02-19T01:25:23.232Z,10.48
2019-02-19T01:27:50.104Z,11.37
2019-02-19T01:30:16.730Z,15.03
2019-02-19T01:32:43.277Z,9.47
2019-02-19T01:35:09.783Z,11.77
2019-02-19T01:37:36.171Z,10.40
2019-02-19T01:40:05.395Z,13.33
2019-02-19T01:42:32.007Z,13.10
2019-02-19T01:44:58.567Z,11.53
2019-02-19T01:47:25.084Z,12.97
2019-02-19T01:49:51.847Z,10.90
2019-02-19T01:52:18.697Z,11.87
2019-02-19T01:54:45.593Z,8.20
2019-02-19T01:57:12.346Z,9.40
2019-02-19T01:59:39.790Z,9.83
2019-02-19T02:02:15.127Z,8.63
2019-02-19T02:04:41.859Z,9.10
2019-02-19T02:07:08.291Z,12.30
2019-02-19T02:09:35.058Z,9.80
2019-02-19T02:12:01.468Z,11.37
2019-02-19T02:14:28.021Z,8.90
2019-02-19T02:16:54.558Z,9.60
2019-02-19T02:19:20.999Z,8.50
2019-02-19T02:21:47.408Z,10.47
2019-02-19T02:24:14.028Z,8.33
2019-02-19T02:26:40.837Z,9.37
2019-02-19T02:29:07.354Z,8.83
2019-02-19T02:31:33.886Z,10.77
2019-02-19T02:34:00.379Z,7.93
2019-02-19T02:36:26.797Z,10.80
2019-02-19T02:38:53.602Z,10.30
2019-02-19T02:41:20.519Z,10.87
2019-02-19T02:43:47.071Z,8.13
2019-02-19T02:46:13.607Z,11.00
2019-02-19T02:48:40.063Z,13.97
2019-02-19T02:51:06.596Z,8.87
2019-02-19T02:53:33.108Z,10.23
2019-02-19T02:55:59.641Z,9.43
2019-02-19T02:58:26.134Z,11.03
2019-02-19T03:00:52.686Z,12.00
2019-02-19T03:03:19.217Z,10.13
2019-02-19T03:06:00.947Z,12.10
2019-02-19T03:08:27.473Z,10.27
2019-02-19T03:10:53.980Z,11.80
2019-02-19T03:13:20.431Z,18.23
2019-02-19T03:15:47.064Z,15.63
2019-02-19T03:18:13.621Z,17.07
2019-02-19T03:20:40.119Z,14.23
2019-02-19T03:23:06.625Z,12.13
2019-02-19T03:25:33.135Z,16.57
2019-02-19T03:27:59.656Z,14.13
2019-02-19T03:30:26.213Z,15.53
2019-02-19T03:32:52.748Z,15.07
2019-02-19T03:35:19.241Z,14.60
2019-02-19T03:37:45.767Z,12.37
2019-02-19T03:40:12.301Z,13.93
2019-02-19T03:42:38.786Z,12.43
2019-02-19T03:45:07.667Z,12.67
2019-02-19T03:47:34.360Z,20.40
2019-02-19T03:50:01.160Z,12.40
2019-02-19T03:52:27.701Z,14.60
2019-02-19T03:54:54.479Z,11.00
2019-02-19T03:57:20.919Z,13.90
2019-02-19T03:59:47.704Z,12.63
2019-02-19T04:02:14.457Z,13.40
2019-02-19T04:04:40.956Z,15.87
2019-02-19T04:07:07.468Z,11.03
2019-02-19T04:09:33.980Z,10.77
2019-02-19T04:12:00.743Z,14.37
2019-02-19T04:14:27.510Z,13.17
2019-02-19T04:16:54.072Z,9.47
2019-02-19T04:19:20.604Z,14.07
2019-02-19T04:21:47.220Z,12.20
2019-02-19T04:24:13.816Z,11.17
2019-02-19T04:26:40.343Z,12.27
2019-02-19T04:29:06.866Z,10.80
2019-02-19T04:31:33.492Z,12.37
2019-02-19T04:34:00.011Z,11.73
2019-02-19T04:36:26.423Z,9.60
2019-02-19T04:38:53.134Z,10.73
2019-02-19T04:41:19.928Z,8.33
2019-02-19T04:43:47.420Z,12.00
2019-02-19T04:46:13.924Z,10.40
2019-02-19T04:48:40.338Z,10.33
2019-02-19T04:51:06.855Z,9.73
2019-02-19T04:53:33.356Z,8.57
2019-02-19T04:56:00.036Z,13.23
2019-02-19T04:58:26.459Z,10.60
2019-02-19T05:00:53.119Z,12.37
2019-02-19T05:03:19.559Z,10.67
2019-02-19T05:05:46.080Z,7.87
2019-02-19T05:08:12.797Z,12.40
2019-02-19T05:10:39.328Z,8.33
2019-02-19T05:13:07.227Z,8.03
2019-02-19T05:15:33.699Z,9.13
2019-02-19T05:18:00.637Z,8.80
2019-02-19T05:20:27.156Z,10.73
2019-02-19T05:22:53.649Z,9.40
2019-02-19T05:25:20.438Z,11.13
2019-02-19T05:27:48.155Z,9.20
2019-02-19T05:30:14.994Z,12.03
2019-02-19T05:32:41.402Z,10.40
2019-02-19T05:35:08.022Z,12.10
2019-02-19T05:37:34.536Z,13.73
2019-02-19T05:40:01.239Z,12.97
2019-02-19T05:42:27.740Z,10.00
2019-02-19T05:44:54.515Z,13.47
2019-02-19T05:47:21.939Z,11.73
2019-02-19T05:49:48.819Z,10.13
2019-02-19T05:52:15.343Z,12.13
2019-02-19T05:54:41.882Z,12.13
2019-02-19T05:57:08.431Z,12.67
2019-02-19T05:59:34.978Z,10.93
2019-02-19T06:02:01.497Z,13.37
2019-02-19T06:04:28.180Z,9.27
2019-02-19T06:06:54.989Z,9.30
2019-02-19T06:09:21.777Z,11.30
2019-02-19T06:11:49.577Z,13.00
2019-02-19T06:14:16.153Z,11.50
2019-02-19T06:16:42.859Z,15.57
2019-02-19T06:19:09.292Z,14.77
2019-02-19T06:21:35.713Z,14.97
2019-02-19T06:24:02.833Z,15.20
2019-02-19T06:26:29.388Z,13.67
2019-02-19T06:28:57.758Z,23.93
2019-02-19T06:31:24.540Z,19.97
2019-02-19T06:33:51.453Z,18.53
2019-02-19T06:36:17.905Z,14.03
2019-02-19T06:38:44.463Z,15.37
2019-02-19T06:41:11.129Z,14.63
2019-02-19T06:43:37.818Z,11.13
2019-02-19T06:46:04.326Z,16.57
2019-02-19T06:48:30.996Z,19.40
2019-02-19T06:50:57.738Z,11.13
2019-02-19T06:53:24.268Z,15.23
2019-02-19T06:55:50.887Z,9.83
2019-02-19T06:58:17.397Z,8.60
2019-02-19T07:00:46.185Z,11.47
2019-02-19T07:03:17.323Z,13.40
2019-02-19T07:05:43.860Z,12.37
2019-02-19T07:08:10.597Z,11.43
2019-02-19T07:10:37.452Z,11.57
2019-02-19T07:13:03.904Z,8.50
2019-02-19T07:15:30.423Z,7.27
2019-02-19T07:17:57.948Z,6.47
2019-02-19T07:20:24.355Z,6.47
2019-02-19T07:22:51.203Z,8.53
2019-02-19T07:25:17.770Z,7.80
2019-02-19T07:27:45.256Z,6.77
2019-02-19T07:30:11.778Z,8.57
2019-02-19T07:32:38.298Z,8.30
2019-02-19T07:35:07.887Z,7.23
2019-02-19T07:37:35.729Z,6.40
2019-02-19T07:40:03.709Z,6.43
2019-02-19T07:42:30.287Z,8.27
2019-02-19T07:44:56.853Z,6.80
2019-02-19T07:47:24.840Z,8.77
2019-02-19T07:49:51.480Z,7.80
2019-02-19T07:52:18.048Z,10.37
2019-02-19T07:54:44.986Z,7.00
2019-02-19T07:57:11.695Z,6.77
2019-02-19T07:59:39.479Z,7.40
2019-02-19T08:02:06.315Z,9.53
2019-02-19T08:04:32.816Z,8.13
2019-02-19T08:06:59.451Z,6.80
2019-02-19T08:09:26.873Z,7.83
2019-02-19T08:11:53.409Z,11.50
2019-02-19T08:14:20.004Z,9.47
2019-02-19T08:16:46.497Z,7.13
2019-02-19T08:19:13.015Z,8.37
2019-02-19T08:21:39.763Z,5.20
2019-02-19T08:24:06.367Z,9.50
2019-02-19T08:26:32.868Z,6.87
2019-02-19T08:29:11.328Z,10.90
2019-02-19T08:31:28.968Z,7.47
2019-02-19T08:33:55.859Z,5.93
2019-02-19T08:36:22.458Z,6.10
2019-02-19T08:38:48.889Z,9.43
2019-02-19T08:41:15.700Z,6.23
2019-02-19T08:43:42.473Z,8.47
2019-02-19T08:46:09.021Z,7.37
2019-02-19T08:48:35.666Z,5.97
2019-02-19T08:51:02.439Z,7.57
2019-02-19T08:53:28.865Z,7.47
2019-02-19T08:55:55.624Z,7.53
2019-02-19T08:58:22.391Z,5.50
2019-02-19T09:00:48.919Z,6.20
2019-02-19T09:03:16.921Z,8.20
2019-02-19T09:05:43.642Z,3.80
2019-02-19T09:08:10.067Z,6.07
2019-02-19T09:10:36.586Z,6.10
2019-02-19T09:13:03.152Z,8.17
2019-02-19T09:15:29.675Z,5.27
2019-02-19T09:17:56.254Z,5.23
2019-02-19T09:20:22.881Z,4.13
2019-02-19T09:22:49.660Z,7.30
2019-02-19T09:25:16.114Z,8.47
2019-02-19T09:27:43.363Z,5.20
2019-02-19T09:30:11.049Z,4.67
2019-02-19T09:32:37.673Z,9.10
2019-02-19T09:35:05.432Z,5.17
2019-02-19T09:37:32.145Z,6.70
2019-02-19T09:39:58.835Z,5.83
2019-02-19T09:42:25.383Z,4.73
2019-02-19T09:44:51.792Z,7.13
2019-02-19T09:47:18.311Z,5.03
2019-02-19T09:49:45.718Z,7.13
2019-02-19T09:52:12.495Z,4.77
2019-02-19T09:54:38.920Z,7.57
2019-02-19T09:57:06.721Z,6.47
2019-02-19T09:59:33.529Z,5.17
2019-02-19T10:02:00.024Z,7.67
2019-02-19T10:04:26.830Z,4.70
2019-02-19T10:06:53.272Z,4.77
2019-02-19T10:09:19.689Z,5.93
2019-02-19T10:11:46.502Z,6.80
2019-02-19T10:14:13.025Z,4.63
2019-02-19T10:16:41.914Z,4.80
2019-02-19T10:19:08.039Z,5.93
2019-02-19T10:21:34.680Z,5.50
2019-02-19T10:24:01.423Z,8.63
2019-02-19T10:26:27.904Z,4.93
2019-02-19T10:28:55.372Z,3.53
2019-02-19T10:31:21.888Z,4.70
2019-02-19T10:33:48.419Z,5.50
2019-02-19T10:36:15.051Z,6.77
2019-02-19T10:38:41.558Z,6.03
2019-02-19T10:41:08.036Z,5.03
2019-02-19T10:43:34.460Z,8.67
2019-02-19T10:46:01.027Z,7.03
2019-02-19T10:48:27.526Z,7.37
2019-02-19T10:50:53.939Z,4.30
2019-02-19T10:53:20.422Z,6.63
2019-02-19T10:55:47.108Z,7.70
2019-02-19T10:58:22.301Z,5.43
2019-02-19T11:00:42.499Z,4.23
2019-02-19T11:03:09.286Z,6.23
2019-02-19T11:05:35.783Z,6.17
2019-02-19T11:08:02.472Z,9.67
2019-02-19T11:10:29.026Z,5.07
2019-02-19T11:12:55.783Z,5.17
2019-02-19T11:15:22.323Z,3.43
2019-02-19T11:17:48.947Z,5.10
2019-02-19T11:20:20.525Z,4.30
2019-02-19T11:22:47.340Z,6.77
2019-02-19T11:25:13.748Z,3.53
2019-02-19T11:27:40.280Z,4.87
2019-02-19T11:30:18.073Z,6.40
2019-02-19T11:32:44.831Z,6.10
2019-02-19T11:35:11.363Z,3.90
2019-02-19T11:37:37.847Z,5.30
2019-02-19T11:40:07.812Z,6.37
2019-02-19T11:42:34.632Z,5.13
2019-02-19T11:45:01.434Z,6.73
2019-02-19T11:47:27.948Z,8.90
2019-02-19T11:49:54.641Z,8.27
2019-02-19T11:52:21.071Z,6.30
2019-02-19T11:54:47.554Z,8.67
2019-02-19T11:57:14.353Z,6.27
2019-02-19T11:59:40.913Z,5.70
2019-02-19T12:02:11.570Z,6.50
2019-02-19T12:04:39.535Z,9.60
2019-02-19T12:07:06.026Z,8.73
2019-02-19T12:09:32.549Z,6.53
2019-02-19T12:12:00.311Z,7.27
2019-02-19T12:14:26.823Z,7.03
2019-02-19T12:16:53.337Z,9.03
2019-02-19T12:19:19.860Z,4.97
2019-02-19T12:21:46.449Z,5.57
2019-02-19T12:24:12.852Z,5.67
2019-02-19T12:26:40.456Z,3.80
2019-02-19T12:29:06.994Z,5.13
2019-02-19T12:31:33.583Z,5.93
2019-02-19T12:34:00.253Z,5.30
2019-02-19T12:36:26.733Z,5.37
2019-02-19T12:38:53.592Z,5.97
2019-02-19T12:41:20.115Z,5.97
2019-02-19T12:43:46.677Z,6.40
2019-02-19T12:46:13.112Z,7.13
2019-02-19T12:48:39.890Z,6.43
2019-02-19T12:51:06.704Z,7.33
2019-02-19T12:53:33.234Z,5.70
2019-02-19T12:55:59.659Z,9.93
2019-02-19T12:58:26.164Z,7.50
2019-02-19T13:00:52.576Z,6.93
2019-02-19T13:03:19.402Z,7.70
2019-02-19T13:05:45.882Z,10.73
2019-02-19T13:08:12.311Z,5.63
2019-02-19T13:10:38.756Z,7.33
2019-02-19T13:13:05.483Z,6.43
2019-02-19T13:15:32.271Z,9.87
2019-02-19T13:17:59.049Z,5.43
2019-02-19T13:20:25.552Z,10.90
2019-02-19T13:22:52.250Z,7.40
2019-02-19T13:25:19.791Z,11.30
2019-02-19T13:27:46.393Z,7.03
2019-02-19T13:30:18.350Z,7.57
2019-02-19T13:32:46.149Z,8.67
2019-02-19T13:35:12.677Z,5.27
2019-02-19T13:37:39.587Z,8.60
2019-02-19T13:40:08.812Z,6.93
2019-02-19T13:42:35.252Z,5.93
2019-02-19T13:45:01.764Z,7.20
2019-02-19T13:47:29.268Z,9.70
2019-02-19T13:49:55.814Z,6.97
2019-02-19T13:52:24.931Z,7.43
2019-02-19T13:54:51.708Z,9.00
2019-02-19T13:57:18.499Z,9.20
2019-02-19T13:59:44.950Z,9.17
2019-02-19T14:02:11.835Z,7.73
2019-02-19T14:04:38.614Z,12.70
2019-02-19T14:07:05.100Z,9.37
2019-02-19T14:09:32.521Z,10.70
2019-02-19T14:11:59.331Z,9.93
2019-02-19T14:14:30.239Z,9.13
2019-02-19T14:16:58.170Z,8.67
2019-02-19T14:19:26.684Z,9.10
2019-02-19T14:22:04.318Z,6.77
2019-02-19T14:24:39.054Z,7.07
2019-02-19T14:27:22.851Z,8.57
2019-02-19T14:29:54.293Z,8.60
2019-02-19T14:32:25.673Z,10.07
2019-02-19T14:35:10.912Z,9.67
2019-02-19T14:37:39.365Z,10.83
2019-02-19T14:40:11.653Z,8.00
2019-02-19T14:42:41.515Z,7.80
2019-02-19T14:45:10.873Z,7.67
2019-02-19T14:47:56.031Z,11.20
2019-02-19T14:50:30.735Z,7.93
2019-02-19T14:53:07.946Z,10.37
2019-02-19T14:55:39.356Z,10.47
2019-02-19T14:58:16.731Z,9.13
2019-02-19T15:00:45.152Z,11.90
2019-02-19T15:03:13.547Z,8.33
2019-02-19T15:05:41.957Z,51.60
2019-02-19T15:08:10.405Z,20.07
2019-02-19T15:10:50.650Z,15.27
2019-02-19T15:13:18.972Z,16.43
2019-02-19T15:15:56.790Z,11.43
2019-02-19T15:18:40.385Z,9.60
2019-02-19T15:21:14.587Z,15.40
2019-02-19T15:23:59.449Z,12.53
2019-02-19T15:26:27.785Z,8.60
2019-02-19T15:29:05.012Z,15.83
2019-02-19T15:31:36.467Z,23.47
2019-02-19T15:34:10.577Z,19.50
2019-02-19T15:36:55.838Z,29.93
2019-02-19T15:39:27.249Z,20.97
2019-02-19T15:42:04.750Z,29.63
2019-02-19T15:44:36.955Z,16.73
2019-02-19T15:47:14.566Z,15.43
2019-02-19T15:49:47.799Z,14.87
2019-02-19T15:52:19.083Z,17.23
2019-02-19T15:54:50.255Z,16.60
2019-02-19T15:57:21.742Z,16.63
2019-02-19T15:59:56.015Z,14.70
2019-02-19T16:02:29.184Z,18.23
2019-02-19T16:05:03.762Z,13.20
2019-02-19T16:07:32.504Z,12.83
2019-02-19T16:10:01.289Z,13.73
2019-02-19T16:12:33.965Z,13.50
2019-02-19T16:15:03.891Z,16.23
2019-02-19T16:17:41.654Z,11.63
2019-02-19T16:20:21.909Z,17.07
2019-02-19T16:22:53.372Z,16.67
2019-02-19T16:25:25.031Z,16.57
2019-02-19T16:27:53.447Z,13.83
2019-02-19T16:30:24.893Z,12.13
2019-02-19T16:32:56.392Z,16.47
2019-02-19T16:35:24.811Z,14.13
2019-02-19T16:37:56.289Z,11.80
2019-02-19T16:40:27.525Z,17.27
2019-02-19T16:43:14.405Z,14.00
2019-02-19T16:45:42.711Z,13.10
2019-02-19T16:48:14.425Z,11.60
2019-02-19T16:50:42.825Z,14.67
2019-02-19T16:53:11.342Z,17.70
2019-02-19T16:55:57.444Z,13.57
2019-02-19T16:58:28.951Z,18.17
2019-02-19T17:01:12.656Z,14.27
2019-02-19T17:03:44.047Z,10.53
2019-02-19T17:06:12.757Z,11.50
2019-02-19T17:08:52.970Z,11.33
2019-02-19T17:11:24.123Z,13.73
2019-02-19T17:14:01.684Z,11.90
2019-02-19T17:16:45.510Z,13.70
2019-02-19T17:19:14.004Z,19.17
2019-02-19T17:21:48.087Z,12.00
2019-02-19T17:24:22.447Z,11.10
2019-02-19T17:26:51.188Z,11.03
2019-02-19T17:29:20.204Z,14.43
2019-02-19T17:31:50.057Z,8.07
2019-02-19T17:34:24.456Z,11.77
2019-02-19T17:36:58.821Z,9.60
2019-02-19T17:39:27.470Z,11.30
2019-02-19T17:41:58.754Z,10.33
2019-02-19T17:44:29.979Z,8.50
2019-02-19T17:46:58.464Z,9.73
2019-02-19T17:49:27.163Z,9.17
2019-02-19T17:51:58.936Z,7.77
2019-02-19T17:54:36.201Z,13.57
2019-02-19T17:57:21.031Z,10.53
2019-02-19T17:59:52.139Z,9.83
2019-02-19T18:02:29.688Z,12.77
2019-02-19T18:05:14.571Z,13.80
2019-02-19T18:07:55.234Z,12.43
2019-02-19T18:10:23.671Z,10.80
2019-02-19T18:12:55.442Z,9.53
2019-02-19T18:15:37.321Z,7.23
2019-02-19T18:18:20.991Z,7.60
2019-02-19T18:20:48.088Z,5.20
2019-02-19T18:23:14.856Z,6.67
2019-02-19T18:25:41.637Z,4.73
2019-02-19T18:28:08.409Z,6.37
2019-02-19T18:30:34.820Z,5.67
2019-02-19T18:33:01.515Z,5.67
2019-02-19T18:35:29.073Z,6.17
2019-02-19T18:37:55.595Z,5.10
2019-02-19T18:40:22.083Z,8.03
2019-02-19T18:42:48.790Z,5.40
2019-02-19T18:45:15.648Z,6.03
2019-02-19T18:47:42.387Z,8.10
2019-02-19T18:50:09.112Z,7.27
2019-02-19T18:52:35.800Z,5.13
2019-02-19T18:55:03.116Z,6.37
2019-02-19T18:57:30.553Z,4.93
2019-02-19T18:59:57.360Z,6.80
2019-02-19T19:02:23.901Z,12.93
2019-02-19T19:04:50.426Z,6.87
2019-02-19T19:07:16.981Z,11.27
2019-02-19T19:09:43.768Z,7.37
2019-02-19T19:12:10.389Z,11.90
2019-02-19T19:14:37.893Z,8.13
2019-02-19T19:17:04.418Z,8.53
2019-02-19T19:19:32.312Z,12.77
2019-02-19T19:21:59.126Z,8.30
2019-02-19T19:24:25.904Z,17.90
2019-02-19T19:26:54.417Z,12.30
2019-02-19T19:29:20.925Z,10.73
2019-02-19T19:31:47.440Z,11.40
2019-02-19T19:34:14.380Z,12.93
2019-02-19T19:36:41.165Z,11.97
2019-02-19T19:39:08.090Z,17.13
2019-02-19T19:41:36.756Z,16.93
2019-02-19T19:44:03.413Z,17.10
2019-02-19T19:46:29.919Z,19.30
2019-02-19T19:48:56.799Z,13.37
2019-02-19T19:51:23.298Z,14.97
2019-02-19T19:53:49.743Z,13.37
2019-02-19T19:56:16.232Z,10.37
2019-02-19T19:58:42.747Z,12.60
2019-02-19T20:01:09.469Z,11.00
2019-02-19T20:03:35.966Z,9.40
2019-02-19T20:06:02.651Z,12.63
2019-02-19T20:08:30.481Z,13.90
2019-02-19T20:10:57.288Z,10.17
2019-02-19T20:13:24.073Z,10.97
2019-02-19T20:15:50.841Z,12.40
2019-02-19T20:18:17.259Z,10.90
2019-02-19T20:20:43.757Z,10.80
2019-02-19T20:23:10.298Z,14.33
2019-02-19T20:25:36.812Z,14.00
2019-02-19T20:28:04.824Z,14.37
2019-02-19T20:30:31.444Z,9.73
2019-02-19T20:33:02.312Z,10.73
2019-02-19T20:35:29.034Z,8.07
2019-02-19T20:38:00.325Z,12.80
2019-02-19T20:40:26.830Z,10.00
2019-02-19T20:42:55.117Z,16.93
2019-02-19T20:45:22.062Z,13.37
2019-02-19T20:47:48.695Z,11.43
2019-02-19T20:50:15.105Z,14.53
2019-02-19T20:52:42.998Z,17.50
2019-02-19T20:55:10.709Z,15.17
2019-02-19T20:57:37.314Z,21.23
2019-02-19T21:00:15.159Z,20.23
2019-02-19T21:02:43.794Z,21.80
2019-02-19T21:05:10.875Z,20.73
2019-02-19T21:07:37.378Z,17.13
2019-02-19T21:10:10.536Z,19.17
2019-02-19T21:12:39.233Z,15.20
2019-02-19T21:15:06.226Z,14.37
2019-02-19T21:17:32.998Z,14.40
2019-02-19T21:20:00.573Z,13.80
2019-02-19T21:22:27.191Z,16.40
2019-02-19T21:24:53.975Z,15.47
2019-02-19T21:27:20.628Z,16.30
2019-02-19T21:29:47.442Z,18.47
2019-02-19T21:32:13.941Z,19.10
2019-02-19T21:34:40.753Z,15.03
2019-02-19T21:37:07.264Z,14.97
2019-02-19T21:39:33.768Z,13.27
2019-02-19T21:42:00.358Z,12.27
2019-02-19T21:44:26.797Z,12.40
2019-02-19T21:46:53.628Z,13.63
2019-02-19T21:49:20.441Z,11.90
2019-02-19T21:51:53.913Z,16.10
2019-02-19T21:54:15.561Z,10.17
2019-02-19T21:56:42.427Z,8.40
2019-02-19T21:59:09.081Z,13.03
2019-02-19T22:01:35.515Z,11.87
2019-02-19T22:04:02.013Z,11.40
2019-02-19T22:06:28.635Z,10.23
2019-02-19T22:08:55.139Z,10.23
2019-02-19T22:11:21.576Z,7.17
2019-02-19T22:13:49.516Z,12.53
2019-02-19T22:16:15.984Z,13.60
2019-02-19T22:18:42.676Z,10.77
2019-02-19T22:21:17.170Z,13.17
2019-02-19T22:23:43.696Z,11.60
2019-02-19T22:26:10.214Z,14.37
2019-02-19T22:28:36.747Z,16.70
2019-02-19T22:31:03.540Z,16.37
2019-02-19T22:33:30.298Z,12.90
2019-02-19T22:35:56.811Z,15.17
2019-02-19T22:38:23.353Z,10.43
2019-02-19T22:40:55.279Z,12.57
2019-02-19T22:43:18.508Z,10.83
2019-02-19T22:45:45.011Z,8.73
2019-02-19T22:48:11.802Z,8.80
2019-02-19T22:50:38.638Z,14.33
2019-02-19T22:53:07.324Z,15.13
2019-02-19T22:55:35.870Z,8.10
2019-02-19T22:58:02.487Z,11.00
2019-02-19T23:00:45.393Z,10.50
2019-02-19T23:03:14.591Z,13.30
2019-02-19T23:05:41.272Z,11.80
2019-02-19T23:08:08.048Z,13.47
2019-02-19T23:10:34.842Z,12.37
2019-02-19T23:13:01.258Z,17.37
2019-02-19T23:15:27.921Z,15.80
2019-02-19T23:17:54.363Z,13.80
2019-02-19T23:20:20.924Z,12.07
2019-02-19T23:22:48.724Z,13.03
2019-02-19T23:25:16.166Z,13.63
2019-02-19T23:27:43.683Z,13.53
2019-02-19T23:30:10.200Z,11.80
2019-02-19T23:32:37.095Z,14.30
2019-02-19T23:35:05.716Z,15.90
2019-02-19T23:37:32.590Z,13.10
2019-02-19T23:39:59.120Z,12.13
2019-02-19T23:42:25.646Z,12.43
2019-02-19T23:44:52.062Z,10.50
2019-02-19T23:47:18.579Z,11.13
2019-02-19T23:49:45.006Z,12.23
2019-02-19T23:52:11.534Z,10.33
2019-02-19T23:54:38.059Z,9.90
2019-02-19T23:57:04.763Z,12.60
2019-02-19T23:59:31.550Z,10.17
